الصفحة الرئيسية
METAR-TAF:

METAR-TAF

مطار :

لينتز, النمسا

دائرة عرض: 48-14N, خط طول: 014-11E, ارتفاع: 298 متر

مراقبة الطقس الحالي

تاريخ ووقت الإصدار 38 دقيقة قبل الساعة 01:50UTC
ريح 3 عقدة من الجنوب الشرقي
درجة الحرارة 18°درجة مئوية
الرطوبة 100%
ضغط 1022 hPa
الرؤية 10 كم أو أكثر
غيوم قليلة على ارتفاع 6000 قدم

METAR: LOWL 180150Z AUTO 13003KT 9999 FEW060 18/18 Q1022

زمن: 04:28 (02:28 UTC)

توقعات

تاريخ ووقت الإصدار 3ساعات و 13 دقيقة قبل الساعة 23:15UTC
التوقعات صالحة من18 الساعة 00 UTC إلى 18 الساعة 24 UTC
ريح 4 عقدةمن اتجاهات متغيرة
الرؤية 10 كم أو أكثر
غيوم قليلة على ارتفاع 3000 قدم
غيوم متفرقة على ارتفاع 5000 قدم
مؤقت
من 18 الساعة 06 UTC إلى 18 الساعة 18 UTC
ريح 7 عقدة من الشرق

TAF: LOWL 172315Z 1800/1824 VRB04KT 9999 FEW030 SCT050 TX29/1815Z TN17/1803Z TEMPO 1806/1818 09007KT

أرصاد الطقس والتوقعات من أكثر من 4000 مطار (تقارير الطقس للمطار METAR والتنبؤ بالطقس بالمطارTAF).

المحطات المتاحة هي النقط الصفراء والحمراء على الخريطة.

حرك المؤشر فوق النقطة لمعرفة اسم المحطة.

ثم انقر لمعرفة أرصاد وتوقعات الطقس.

لتغيير الخارطة: اضغط على الأزرار الخضراء مع رمز الصليب الأسود للتكبير. على الزر الأخضر مع شرطة للتصغير، أو على الأسهم الخضراء للخرائط المجاورة.


METAR-TAF: